sensor_id;sensor_type;location;lat;lon;timestamp;P1;durP1;ratioP1;P2;durP2;ratioP2
14040;SDS011;7095;51.388;6.196;2023-02-15T00:01:18;37.37;;;22.13;;
14040;SDS011;7095;51.388;6.196;2023-02-15T00:03:47;43.70;;;21.80;;
14040;SDS011;7095;51.388;6.196;2023-02-15T00:06:16;42.33;;;20.83;;
14040;SDS011;7095;51.388;6.196;2023-02-15T00:08:45;43.17;;;22.73;;
14040;SDS011;7095;51.388;6.196;2023-02-15T00:11:14;42.30;;;22.20;;
14040;SDS011;7095;51.388;6.196;2023-02-15T00:14:04;41.57;;;21.67;;
14040;SDS011;7095;51.388;6.196;2023-02-15T00:16:35;52.10;;;25.20;;
14040;SDS011;7095;51.388;6.196;2023-02-15T00:19:04;40.87;;;23.30;;
14040;SDS011;7095;51.388;6.196;2023-02-15T00:21:34;49.63;;;24.50;;
14040;SDS011;7095;51.388;6.196;2023-02-15T00:24:04;50.00;;;26.03;;
14040;SDS011;7095;51.388;6.196;2023-02-15T00:26:35;45.63;;;24.73;;
14040;SDS011;7095;51.388;6.196;2023-02-15T00:29:05;41.03;;;22.67;;
14040;SDS011;7095;51.388;6.196;2023-02-15T00:31:36;44.40;;;24.97;;
14040;SDS011;7095;51.388;6.196;2023-02-15T00:34:05;46.47;;;25.67;;
14040;SDS011;7095;51.388;6.196;2023-02-15T00:36:36;52.83;;;28.00;;
14040;SDS011;7095;51.388;6.196;2023-02-15T00:39:04;51.77;;;28.53;;
14040;SDS011;7095;51.388;6.196;2023-02-15T00:41:34;56.13;;;29.10;;
14040;SDS011;7095;51.388;6.196;2023-02-15T00:44:03;53.13;;;27.93;;
14040;SDS011;7095;51.388;6.196;2023-02-15T00:46:32;63.37;;;30.93;;
14040;SDS011;7095;51.388;6.196;2023-02-15T00:49:03;63.40;;;30.40;;
14040;SDS011;7095;51.388;6.196;2023-02-15T00:51:32;57.17;;;28.17;;
14040;SDS011;7095;51.388;6.196;2023-02-15T00:54:01;57.03;;;27.33;;
14040;SDS011;7095;51.388;6.196;2023-02-15T00:56:29;57.47;;;27.27;;
14040;SDS011;7095;51.388;6.196;2023-02-15T00:58:58;56.13;;;27.77;;
14040;SDS011;7095;51.388;6.196;2023-02-15T01:01:26;52.53;;;27.53;;
14040;SDS011;7095;51.388;6.196;2023-02-15T01:03:55;51.07;;;25.63;;
14040;SDS011;7095;51.388;6.196;2023-02-15T01:06:24;48.97;;;26.93;;
14040;SDS011;7095;51.388;6.196;2023-02-15T01:08:53;55.50;;;28.63;;
14040;SDS011;7095;51.388;6.196;2023-02-15T01:11:21;51.13;;;25.20;;
14040;SDS011;7095;51.388;6.196;2023-02-15T01:13:51;55.53;;;29.00;;
14040;SDS011;7095;51.388;6.196;2023-02-15T01:16:20;53.93;;;27.07;;
14040;SDS011;7095;51.388;6.196;2023-02-15T01:18:50;53.80;;;26.80;;
14040;SDS011;7095;51.388;6.196;2023-02-15T01:21:19;54.20;;;27.67;;
14040;SDS011;7095;51.388;6.196;2023-02-15T01:23:50;58.13;;;27.40;;
14040;SDS011;7095;51.388;6.196;2023-02-15T01:26:19;49.20;;;26.00;;
14040;SDS011;7095;51.388;6.196;2023-02-15T01:28:47;54.20;;;26.07;;
14040;SDS011;7095;51.388;6.196;2023-02-15T01:31:17;55.53;;;28.70;;
14040;SDS011;7095;51.388;6.196;2023-02-15T01:33:48;55.87;;;28.43;;
14040;SDS011;7095;51.388;6.196;2023-02-15T01:36:16;50.30;;;25.17;;
14040;SDS011;7095;51.388;6.196;2023-02-15T01:38:44;58.97;;;29.87;;
14040;SDS011;7095;51.388;6.196;2023-02-15T01:41:14;55.17;;;28.30;;
14040;SDS011;7095;51.388;6.196;2023-02-15T01:43:51;54.23;;;29.87;;
14040;SDS011;7095;51.388;6.196;2023-02-15T01:46:22;65.73;;;31.13;;
14040;SDS011;7095;51.388;6.196;2023-02-15T01:48:56;57.77;;;29.20;;
14040;SDS011;7095;51.388;6.196;2023-02-15T01:51:31;66.07;;;30.70;;
14040;SDS011;7095;51.388;6.196;2023-02-15T01:54:03;66.50;;;32.20;;
14040;SDS011;7095;51.388;6.196;2023-02-15T01:56:39;60.97;;;31.00;;
14040;SDS011;7095;51.388;6.196;2023-02-15T01:59:09;71.00;;;32.97;;
14040;SDS011;7095;51.388;6.196;2023-02-15T02:01:42;70.10;;;32.50;;
14040;SDS011;7095;51.388;6.196;2023-02-15T02:04:12;69.43;;;33.30;;
14040;SDS011;7095;51.388;6.196;2023-02-15T02:06:45;64.83;;;31.00;;
14040;SDS011;7095;51.388;6.196;2023-02-15T02:09:16;67.67;;;32.80;;
14040;SDS011;7095;51.388;6.196;2023-02-15T02:11:46;60.03;;;32.60;;
14040;SDS011;7095;51.388;6.196;2023-02-15T02:14:16;70.03;;;31.20;;
14040;SDS011;7095;51.388;6.196;2023-02-15T02:16:47;62.47;;;32.43;;
14040;SDS011;7095;51.388;6.196;2023-02-15T02:19:46;67.87;;;33.83;;
14040;SDS011;7095;51.388;6.196;2023-02-15T02:23:02;66.50;;;31.23;;
14040;SDS011;7095;51.388;6.196;2023-02-15T02:25:59;68.10;;;33.43;;
14040;SDS011;7095;51.388;6.196;2023-02-15T02:29:03;69.83;;;32.40;;
14040;SDS011;7095;51.388;6.196;2023-02-15T02:31:52;58.50;;;30.73;;
14040;SDS011;7095;51.388;6.196;2023-02-15T02:34:50;64.33;;;33.47;;
14040;SDS011;7095;51.388;6.196;2023-02-15T02:37:27;73.53;;;34.17;;
14040;SDS011;7095;51.388;6.196;2023-02-15T02:40:03;74.27;;;34.37;;
14040;SDS011;7095;51.388;6.196;2023-02-15T02:42:37;68.67;;;32.90;;
14040;SDS011;7095;51.388;6.196;2023-02-15T02:45:09;60.17;;;32.23;;
14040;SDS011;7095;51.388;6.196;2023-02-15T02:47:47;71.03;;;33.77;;
14040;SDS011;7095;51.388;6.196;2023-02-15T02:50:25;65.67;;;30.87;;
14040;SDS011;7095;51.388;6.196;2023-02-15T02:52:56;66.97;;;32.03;;
14040;SDS011;7095;51.388;6.196;2023-02-15T02:55:27;58.63;;;30.50;;
14040;SDS011;7095;51.388;6.196;2023-02-15T02:58:01;63.63;;;32.57;;
14040;SDS011;7095;51.388;6.196;2023-02-15T03:00:34;65.63;;;32.50;;
14040;SDS011;7095;51.388;6.196;2023-02-15T03:03:08;66.77;;;30.77;;
14040;SDS011;7095;51.388;6.196;2023-02-15T03:05:44;71.93;;;31.43;;
14040;SDS011;7095;51.388;6.196;2023-02-15T03:08:15;59.47;;;28.63;;
14040;SDS011;7095;51.388;6.196;2023-02-15T03:10:49;51.70;;;27.93;;
14040;SDS011;7095;51.388;6.196;2023-02-15T03:13:20;57.00;;;26.93;;
14040;SDS011;7095;51.388;6.196;2023-02-15T03:15:50;55.77;;;28.63;;
14040;SDS011;7095;51.388;6.196;2023-02-15T03:18:38;57.30;;;28.90;;
14040;SDS011;7095;51.388;6.196;2023-02-15T03:21:12;59.60;;;30.43;;
14040;SDS011;7095;51.388;6.196;2023-02-15T03:23:50;61.77;;;29.33;;
14040;SDS011;7095;51.388;6.196;2023-02-15T03:26:22;53.77;;;27.57;;
14040;SDS011;7095;51.388;6.196;2023-02-15T03:28:55;55.50;;;26.57;;
14040;SDS011;7095;51.388;6.196;2023-02-15T03:31:28;62.33;;;29.27;;
14040;SDS011;7095;51.388;6.196;2023-02-15T03:34:00;62.93;;;31.00;;
14040;SDS011;7095;51.388;6.196;2023-02-15T03:36:35;51.40;;;25.90;;
14040;SDS011;7095;51.388;6.196;2023-02-15T03:39:10;57.40;;;27.23;;
14040;SDS011;7095;51.388;6.196;2023-02-15T03:41:45;56.30;;;27.33;;
14040;SDS011;7095;51.388;6.196;2023-02-15T03:44:18;45.83;;;23.73;;
14040;SDS011;7095;51.388;6.196;2023-02-15T03:46:54;55.53;;;27.03;;
14040;SDS011;7095;51.388;6.196;2023-02-15T03:49:28;51.83;;;26.13;;
14040;SDS011;7095;51.388;6.196;2023-02-15T03:52:05;55.73;;;25.77;;
14040;SDS011;7095;51.388;6.196;2023-02-15T03:54:36;50.70;;;24.23;;
14040;SDS011;7095;51.388;6.196;2023-02-15T03:57:14;58.30;;;28.87;;
14040;SDS011;7095;51.388;6.196;2023-02-15T04:00:04;62.20;;;28.73;;
14040;SDS011;7095;51.388;6.196;2023-02-15T04:03:09;54.97;;;26.07;;
14040;SDS011;7095;51.388;6.196;2023-02-15T04:05:49;62.03;;;29.50;;
14040;SDS011;7095;51.388;6.196;2023-02-15T04:08:19;54.27;;;26.87;;
14040;SDS011;7095;51.388;6.196;2023-02-15T04:11:07;54.00;;;25.93;;
14040;SDS011;7095;51.388;6.196;2023-02-15T04:13:35;61.13;;;27.37;;
14040;SDS011;7095;51.388;6.196;2023-02-15T04:16:03;54.37;;;26.43;;
14040;SDS011;7095;51.388;6.196;2023-02-15T04:18:35;57.40;;;27.53;;
14040;SDS011;7095;51.388;6.196;2023-02-15T04:21:23;60.50;;;28.80;;
14040;SDS011;7095;51.388;6.196;2023-02-15T04:24:11;59.80;;;28.43;;
14040;SDS011;7095;51.388;6.196;2023-02-15T04:26:58;61.13;;;30.60;;
14040;SDS011;7095;51.388;6.196;2023-02-15T04:29:27;55.53;;;26.73;;
14040;SDS011;7095;51.388;6.196;2023-02-15T04:31:57;65.83;;;29.20;;
14040;SDS011;7095;51.388;6.196;2023-02-15T04:34:26;67.70;;;34.30;;
14040;SDS011;7095;51.388;6.196;2023-02-15T04:36:54;64.13;;;28.53;;
14040;SDS011;7095;51.388;6.196;2023-02-15T04:39:25;60.30;;;28.37;;
14040;SDS011;7095;51.388;6.196;2023-02-15T04:41:53;56.93;;;28.43;;
14040;SDS011;7095;51.388;6.196;2023-02-15T04:44:22;61.77;;;29.40;;
14040;SDS011;7095;51.388;6.196;2023-02-15T04:46:50;62.97;;;29.53;;
14040;SDS011;7095;51.388;6.196;2023-02-15T04:49:19;57.33;;;26.33;;
14040;SDS011;7095;51.388;6.196;2023-02-15T04:51:48;70.67;;;30.57;;
14040;SDS011;7095;51.388;6.196;2023-02-15T04:54:16;62.60;;;29.80;;
14040;SDS011;7095;51.388;6.196;2023-02-15T04:56:46;65.53;;;28.80;;
14040;SDS011;7095;51.388;6.196;2023-02-15T04:59:14;60.93;;;29.33;;
14040;SDS011;7095;51.388;6.196;2023-02-15T05:01:43;64.47;;;31.73;;
14040;SDS011;7095;51.388;6.196;2023-02-15T05:04:11;57.73;;;28.70;;
14040;SDS011;7095;51.388;6.196;2023-02-15T05:06:39;63.20;;;29.90;;
14040;SDS011;7095;51.388;6.196;2023-02-15T05:09:08;70.73;;;31.03;;
14040;SDS011;7095;51.388;6.196;2023-02-15T05:11:36;63.27;;;29.63;;
14040;SDS011;7095;51.388;6.196;2023-02-15T05:14:06;65.60;;;30.53;;
14040;SDS011;7095;51.388;6.196;2023-02-15T05:16:35;64.23;;;30.53;;
14040;SDS011;7095;51.388;6.196;2023-02-15T05:19:03;57.53;;;29.17;;
14040;SDS011;7095;51.388;6.196;2023-02-15T05:21:32;66.00;;;30.63;;
14040;SDS011;7095;51.388;6.196;2023-02-15T05:24:01;58.03;;;28.67;;
14040;SDS011;7095;51.388;6.196;2023-02-15T05:26:49;66.60;;;30.10;;
14040;SDS011;7095;51.388;6.196;2023-02-15T05:29:36;69.83;;;31.17;;
14040;SDS011;7095;51.388;6.196;2023-02-15T05:32:04;58.27;;;29.17;;
14040;SDS011;7095;51.388;6.196;2023-02-15T05:34:33;65.17;;;30.10;;
14040;SDS011;7095;51.388;6.196;2023-02-15T05:37:02;65.50;;;32.03;;
14040;SDS011;7095;51.388;6.196;2023-02-15T05:39:30;69.47;;;33.23;;
14040;SDS011;7095;51.388;6.196;2023-02-15T05:41:58;65.77;;;32.97;;
14040;SDS011;7095;51.388;6.196;2023-02-15T05:44:27;67.53;;;32.40;;
14040;SDS011;7095;51.388;6.196;2023-02-15T05:46:57;64.57;;;31.93;;
14040;SDS011;7095;51.388;6.196;2023-02-15T05:49:26;65.50;;;32.83;;
14040;SDS011;7095;51.388;6.196;2023-02-15T05:51:54;59.60;;;28.60;;
14040;SDS011;7095;51.388;6.196;2023-02-15T05:54:23;69.40;;;32.70;;
14040;SDS011;7095;51.388;6.196;2023-02-15T05:56:51;62.50;;;29.70;;
14040;SDS011;7095;51.388;6.196;2023-02-15T05:59:20;61.43;;;29.53;;
14040;SDS011;7095;51.388;6.196;2023-02-15T06:01:49;60.67;;;30.77;;
14040;SDS011;7095;51.388;6.196;2023-02-15T06:04:19;67.17;;;31.63;;
14040;SDS011;7095;51.388;6.196;2023-02-15T06:06:47;66.83;;;30.50;;
14040;SDS011;7095;51.388;6.196;2023-02-15T06:09:15;70.23;;;30.00;;
14040;SDS011;7095;51.388;6.196;2023-02-15T06:11:44;65.57;;;29.50;;
14040;SDS011;7095;51.388;6.196;2023-02-15T06:14:13;66.57;;;30.43;;
14040;SDS011;7095;51.388;6.196;2023-02-15T06:16:41;67.87;;;30.13;;
14040;SDS011;7095;51.388;6.196;2023-02-15T06:19:10;61.20;;;29.70;;
14040;SDS011;7095;51.388;6.196;2023-02-15T06:21:40;59.57;;;29.20;;
14040;SDS011;7095;51.388;6.196;2023-02-15T06:24:08;61.03;;;29.67;;
14040;SDS011;7095;51.388;6.196;2023-02-15T06:26:37;64.73;;;30.90;;
14040;SDS011;7095;51.388;6.196;2023-02-15T06:29:05;72.30;;;34.57;;
14040;SDS011;7095;51.388;6.196;2023-02-15T06:31:33;64.40;;;31.07;;
14040;SDS011;7095;51.388;6.196;2023-02-15T06:34:02;72.83;;;32.30;;
14040;SDS011;7095;51.388;6.196;2023-02-15T06:36:31;79.33;;;35.07;;
14040;SDS011;7095;51.388;6.196;2023-02-15T06:39:01;70.13;;;32.50;;
14040;SDS011;7095;51.388;6.196;2023-02-15T06:41:30;67.77;;;31.67;;
14040;SDS011;7095;51.388;6.196;2023-02-15T06:43:59;75.87;;;33.67;;
14040;SDS011;7095;51.388;6.196;2023-02-15T06:46:28;75.57;;;33.97;;
14040;SDS011;7095;51.388;6.196;2023-02-15T06:48:56;79.10;;;34.03;;
14040;SDS011;7095;51.388;6.196;2023-02-15T06:51:25;90.40;;;38.57;;
14040;SDS011;7095;51.388;6.196;2023-02-15T06:53:53;86.53;;;37.07;;
14040;SDS011;7095;51.388;6.196;2023-02-15T06:56:23;94.23;;;38.37;;
14040;SDS011;7095;51.388;6.196;2023-02-15T06:58:51;90.13;;;39.43;;
14040;SDS011;7095;51.388;6.196;2023-02-15T07:01:20;95.10;;;39.67;;
14040;SDS011;7095;51.388;6.196;2023-02-15T07:03:49;92.90;;;40.67;;
14040;SDS011;7095;51.388;6.196;2023-02-15T07:06:17;85.07;;;39.70;;
14040;SDS011;7095;51.388;6.196;2023-02-15T07:08:46;93.07;;;38.03;;
14040;SDS011;7095;51.388;6.196;2023-02-15T07:11:14;86.13;;;37.37;;
14040;SDS011;7095;51.388;6.196;2023-02-15T07:14:16;87.60;;;37.80;;
14040;SDS011;7095;51.388;6.196;2023-02-15T07:16:44;91.47;;;39.03;;
14040;SDS011;7095;51.388;6.196;2023-02-15T07:19:13;96.20;;;39.43;;
14040;SDS011;7095;51.388;6.196;2023-02-15T07:21:41;86.20;;;39.33;;
14040;SDS011;7095;51.388;6.196;2023-02-15T07:24:10;90.63;;;39.73;;
14040;SDS011;7095;51.388;6.196;2023-02-15T07:26:39;87.17;;;39.53;;
14040;SDS011;7095;51.388;6.196;2023-02-15T07:29:07;89.23;;;40.10;;
14040;SDS011;7095;51.388;6.196;2023-02-15T07:31:37;90.30;;;38.13;;
14040;SDS011;7095;51.388;6.196;2023-02-15T07:34:06;88.00;;;39.07;;
14040;SDS011;7095;51.388;6.196;2023-02-15T07:36:35;88.97;;;38.20;;
14040;SDS011;7095;51.388;6.196;2023-02-15T07:39:03;95.07;;;38.50;;
14040;SDS011;7095;51.388;6.196;2023-02-15T07:41:32;94.33;;;39.10;;
14040;SDS011;7095;51.388;6.196;2023-02-15T07:44:00;91.43;;;38.13;;
14040;SDS011;7095;51.388;6.196;2023-02-15T07:46:29;78.90;;;37.53;;
14040;SDS011;7095;51.388;6.196;2023-02-15T07:48:58;90.33;;;39.33;;
14040;SDS011;7095;51.388;6.196;2023-02-15T07:51:27;83.07;;;35.73;;
14040;SDS011;7095;51.388;6.196;2023-02-15T07:53:55;92.00;;;39.83;;
14040;SDS011;7095;51.388;6.196;2023-02-15T07:56:26;80.47;;;37.13;;
14040;SDS011;7095;51.388;6.196;2023-02-15T07:58:55;87.53;;;39.23;;
14040;SDS011;7095;51.388;6.196;2023-02-15T08:01:25;94.30;;;39.80;;
14040;SDS011;7095;51.388;6.196;2023-02-15T08:03:55;93.53;;;38.90;;
14040;SDS011;7095;51.388;6.196;2023-02-15T08:06:26;82.33;;;38.40;;
14040;SDS011;7095;51.388;6.196;2023-02-15T08:08:57;89.33;;;37.57;;
14040;SDS011;7095;51.388;6.196;2023-02-15T08:11:26;86.87;;;39.30;;
14040;SDS011;7095;51.388;6.196;2023-02-15T08:14:00;89.80;;;39.23;;
14040;SDS011;7095;51.388;6.196;2023-02-15T08:16:31;91.83;;;41.10;;
14040;SDS011;7095;51.388;6.196;2023-02-15T08:19:05;98.83;;;39.77;;
14040;SDS011;7095;51.388;6.196;2023-02-15T08:21:37;83.73;;;40.50;;
14040;SDS011;7095;51.388;6.196;2023-02-15T08:24:07;90.13;;;40.27;;
14040;SDS011;7095;51.388;6.196;2023-02-15T08:26:37;97.27;;;40.43;;
14040;SDS011;7095;51.388;6.196;2023-02-15T08:29:08;96.33;;;42.07;;
14040;SDS011;7095;51.388;6.196;2023-02-15T08:31:37;94.83;;;40.53;;
14040;SDS011;7095;51.388;6.196;2023-02-15T08:34:08;95.43;;;42.23;;
14040;SDS011;7095;51.388;6.196;2023-02-15T08:36:39;94.03;;;39.83;;
14040;SDS011;7095;51.388;6.196;2023-02-15T08:39:08;86.97;;;38.80;;
14040;SDS011;7095;51.388;6.196;2023-02-15T08:41:37;88.17;;;39.90;;
14040;SDS011;7095;51.388;6.196;2023-02-15T08:44:06;87.90;;;40.73;;
14040;SDS011;7095;51.388;6.196;2023-02-15T08:46:37;87.03;;;39.97;;
14040;SDS011;7095;51.388;6.196;2023-02-15T08:49:06;95.43;;;42.60;;
14040;SDS011;7095;51.388;6.196;2023-02-15T08:51:36;83.80;;;40.33;;
14040;SDS011;7095;51.388;6.196;2023-02-15T08:54:08;81.90;;;38.73;;
14040;SDS011;7095;51.388;6.196;2023-02-15T08:56:38;87.13;;;41.17;;
14040;SDS011;7095;51.388;6.196;2023-02-15T08:59:11;88.00;;;39.20;;
14040;SDS011;7095;51.388;6.196;2023-02-15T09:01:40;86.03;;;39.00;;
14040;SDS011;7095;51.388;6.196;2023-02-15T09:04:09;86.50;;;39.07;;
14040;SDS011;7095;51.388;6.196;2023-02-15T09:06:40;84.47;;;38.73;;
14040;SDS011;7095;51.388;6.196;2023-02-15T09:09:12;77.37;;;37.50;;
14040;SDS011;7095;51.388;6.196;2023-02-15T09:11:41;76.87;;;38.97;;
14040;SDS011;7095;51.388;6.196;2023-02-15T09:14:11;78.77;;;37.67;;
14040;SDS011;7095;51.388;6.196;2023-02-15T09:16:43;73.77;;;38.53;;
14040;SDS011;7095;51.388;6.196;2023-02-15T09:19:15;73.67;;;37.03;;
14040;SDS011;7095;51.388;6.196;2023-02-15T09:21:45;76.40;;;38.83;;
14040;SDS011;7095;51.388;6.196;2023-02-15T09:24:16;74.57;;;37.73;;
14040;SDS011;7095;51.388;6.196;2023-02-15T09:26:46;80.20;;;40.50;;
14040;SDS011;7095;51.388;6.196;2023-02-15T09:29:16;74.63;;;38.90;;
14040;SDS011;7095;51.388;6.196;2023-02-15T09:31:46;75.87;;;39.27;;
14040;SDS011;7095;51.388;6.196;2023-02-15T09:34:17;81.87;;;39.33;;
14040;SDS011;7095;51.388;6.196;2023-02-15T09:36:47;73.00;;;37.13;;
14040;SDS011;7095;51.388;6.196;2023-02-15T09:39:18;75.53;;;39.27;;
14040;SDS011;7095;51.388;6.196;2023-02-15T09:41:54;68.17;;;36.13;;
14040;SDS011;7095;51.388;6.196;2023-02-15T09:50:59;65.70;;;35.93;;
14040;SDS011;7095;51.388;6.196;2023-02-15T09:53:44;61.50;;;34.43;;
14040;SDS011;7095;51.388;6.196;2023-02-15T09:56:28;53.40;;;31.70;;
14040;SDS011;7095;51.388;6.196;2023-02-15T09:59:05;59.90;;;33.13;;
14040;SDS011;7095;51.388;6.196;2023-02-15T10:01:44;57.13;;;32.20;;
14040;SDS011;7095;51.388;6.196;2023-02-15T10:04:24;57.93;;;33.50;;
14040;SDS011;7095;51.388;6.196;2023-02-15T10:07:13;49.23;;;30.03;;
14040;SDS011;7095;51.388;6.196;2023-02-15T10:09:58;49.27;;;30.77;;
14040;SDS011;7095;51.388;6.196;2023-02-15T10:12:43;45.20;;;27.73;;
14040;SDS011;7095;51.388;6.196;2023-02-15T10:15:24;50.57;;;29.43;;
14040;SDS011;7095;51.388;6.196;2023-02-15T10:18:06;49.00;;;30.40;;
14040;SDS011;7095;51.388;6.196;2023-02-15T10:20:52;50.73;;;29.53;;
14040;SDS011;7095;51.388;6.196;2023-02-15T10:23:36;44.80;;;27.73;;
14040;SDS011;7095;51.388;6.196;2023-02-15T10:26:16;44.77;;;26.83;;
14040;SDS011;7095;51.388;6.196;2023-02-15T10:28:48;42.50;;;26.50;;
14040;SDS011;7095;51.388;6.196;2023-02-15T10:31:28;46.10;;;28.37;;
14040;SDS011;7095;51.388;6.196;2023-02-15T10:34:11;44.10;;;25.50;;
14040;SDS011;7095;51.388;6.196;2023-02-15T10:36:58;39.87;;;26.83;;
14040;SDS011;7095;51.388;6.196;2023-02-15T10:39:41;43.17;;;26.80;;
14040;SDS011;7095;51.388;6.196;2023-02-15T10:42:23;37.83;;;25.53;;
14040;SDS011;7095;51.388;6.196;2023-02-15T10:45:03;43.70;;;26.60;;
14040;SDS011;7095;51.388;6.196;2023-02-15T10:47:48;41.67;;;25.17;;
14040;SDS011;7095;51.388;6.196;2023-02-15T10:50:39;43.43;;;26.77;;
14040;SDS011;7095;51.388;6.196;2023-02-15T10:53:24;43.03;;;26.10;;
14040;SDS011;7095;51.388;6.196;2023-02-15T10:56:05;42.80;;;27.17;;
14040;SDS011;7095;51.388;6.196;2023-02-15T10:58:44;44.50;;;25.27;;
14040;SDS011;7095;51.388;6.196;2023-02-15T11:01:27;41.20;;;25.17;;
14040;SDS011;7095;51.388;6.196;2023-02-15T11:04:14;43.23;;;26.77;;
14040;SDS011;7095;51.388;6.196;2023-02-15T11:07:12;44.57;;;24.43;;
14040;SDS011;7095;51.388;6.196;2023-02-15T11:09:47;39.20;;;25.17;;
14040;SDS011;7095;51.388;6.196;2023-02-15T11:12:19;39.27;;;24.00;;
14040;SDS011;7095;51.388;6.196;2023-02-15T11:14:51;35.53;;;23.67;;
14040;SDS011;7095;51.388;6.196;2023-02-15T11:17:28;40.83;;;23.30;;
14040;SDS011;7095;51.388;6.196;2023-02-15T11:20:04;40.10;;;25.00;;
14040;SDS011;7095;51.388;6.196;2023-02-15T11:22:44;39.57;;;24.10;;
14040;SDS011;7095;51.388;6.196;2023-02-15T11:25:17;37.03;;;24.17;;
14040;SDS011;7095;51.388;6.196;2023-02-15T11:27:47;36.50;;;22.97;;
14040;SDS011;7095;51.388;6.196;2023-02-15T11:30:21;33.57;;;22.50;;
14040;SDS011;7095;51.388;6.196;2023-02-15T11:32:52;37.70;;;24.23;;
14040;SDS011;7095;51.388;6.196;2023-02-15T11:35:26;39.40;;;24.10;;
14040;SDS011;7095;51.388;6.196;2023-02-15T11:38:01;36.23;;;22.13;;
14040;SDS011;7095;51.388;6.196;2023-02-15T11:40:35;37.53;;;24.03;;
14040;SDS011;7095;51.388;6.196;2023-02-15T11:43:11;36.80;;;23.80;;
14040;SDS011;7095;51.388;6.196;2023-02-15T11:45:45;33.47;;;21.37;;
14040;SDS011;7095;51.388;6.196;2023-02-15T11:48:15;36.40;;;22.40;;
14040;SDS011;7095;51.388;6.196;2023-02-15T11:50:44;34.40;;;22.47;;
14040;SDS011;7095;51.388;6.196;2023-02-15T11:53:13;36.07;;;22.40;;
14040;SDS011;7095;51.388;6.196;2023-02-15T11:55:43;33.63;;;21.87;;
14040;SDS011;7095;51.388;6.196;2023-02-15T11:58:16;36.20;;;23.17;;
14040;SDS011;7095;51.388;6.196;2023-02-15T12:00:56;36.37;;;22.77;;
14040;SDS011;7095;51.388;6.196;2023-02-15T12:03:33;31.23;;;21.83;;
14040;SDS011;7095;51.388;6.196;2023-02-15T12:06:14;35.93;;;22.43;;
14040;SDS011;7095;51.388;6.196;2023-02-15T12:08:53;36.33;;;21.57;;
14040;SDS011;7095;51.388;6.196;2023-02-15T12:11:29;34.93;;;21.33;;
14040;SDS011;7095;51.388;6.196;2023-02-15T12:14:03;38.53;;;22.33;;
14040;SDS011;7095;51.388;6.196;2023-02-15T12:16:34;33.30;;;21.70;;
14040;SDS011;7095;51.388;6.196;2023-02-15T12:19:18;37.93;;;23.17;;
14040;SDS011;7095;51.388;6.196;2023-02-15T12:21:55;31.17;;;20.60;;
14040;SDS011;7095;51.388;6.196;2023-02-15T12:24:26;32.20;;;22.10;;
14040;SDS011;7095;51.388;6.196;2023-02-15T12:26:58;37.03;;;23.00;;
14040;SDS011;7095;51.388;6.196;2023-02-15T12:29:31;31.03;;;20.77;;
14040;SDS011;7095;51.388;6.196;2023-02-15T12:32:08;33.47;;;20.93;;
14040;SDS011;7095;51.388;6.196;2023-02-15T12:34:46;35.67;;;21.27;;
14040;SDS011;7095;51.388;6.196;2023-02-15T12:37:15;41.30;;;21.63;;
14040;SDS011;7095;51.388;6.196;2023-02-15T12:39:52;32.93;;;21.43;;
14040;SDS011;7095;51.388;6.196;2023-02-15T12:42:23;32.83;;;22.53;;
14040;SDS011;7095;51.388;6.196;2023-02-15T12:44:53;32.97;;;21.43;;
14040;SDS011;7095;51.388;6.196;2023-02-15T12:47:24;31.40;;;21.47;;
14040;SDS011;7095;51.388;6.196;2023-02-15T12:50:08;31.73;;;21.20;;
14040;SDS011;7095;51.388;6.196;2023-02-15T12:52:45;39.83;;;22.07;;
14040;SDS011;7095;51.388;6.196;2023-02-15T12:55:19;37.07;;;21.37;;
14040;SDS011;7095;51.388;6.196;2023-02-15T12:58:04;38.47;;;22.17;;
14040;SDS011;7095;51.388;6.196;2023-02-15T13:00:34;29.50;;;19.77;;
14040;SDS011;7095;51.388;6.196;2023-02-15T13:03:03;29.93;;;21.27;;
14040;SDS011;7095;51.388;6.196;2023-02-15T13:05:34;35.23;;;20.67;;
14040;SDS011;7095;51.388;6.196;2023-02-15T13:08:09;35.17;;;21.57;;
14040;SDS011;7095;51.388;6.196;2023-02-15T13:10:40;32.13;;;21.77;;
14040;SDS011;7095;51.388;6.196;2023-02-15T13:13:21;35.33;;;21.27;;
14040;SDS011;7095;51.388;6.196;2023-02-15T13:15:53;37.33;;;22.77;;
14040;SDS011;7095;51.388;6.196;2023-02-15T13:18:28;28.43;;;20.97;;
14040;SDS011;7095;51.388;6.196;2023-02-15T13:21:06;31.93;;;21.83;;
14040;SDS011;7095;51.388;6.196;2023-02-15T13:23:39;30.73;;;21.47;;
14040;SDS011;7095;51.388;6.196;2023-02-15T13:26:13;31.80;;;20.80;;
14040;SDS011;7095;51.388;6.196;2023-02-15T13:28:46;28.83;;;20.20;;
14040;SDS011;7095;51.388;6.196;2023-02-15T13:31:18;29.20;;;20.80;;
14040;SDS011;7095;51.388;6.196;2023-02-15T13:33:49;28.87;;;20.17;;
14040;SDS011;7095;51.388;6.196;2023-02-15T13:36:22;28.43;;;20.93;;
14040;SDS011;7095;51.388;6.196;2023-02-15T13:38:58;30.50;;;21.37;;
14040;SDS011;7095;51.388;6.196;2023-02-15T13:41:41;35.43;;;22.47;;
14040;SDS011;7095;51.388;6.196;2023-02-15T13:44:21;26.83;;;20.67;;
14040;SDS011;7095;51.388;6.196;2023-02-15T13:47:08;31.63;;;21.30;;
14040;SDS011;7095;51.388;6.196;2023-02-15T13:49:46;28.63;;;21.10;;
14040;SDS011;7095;51.388;6.196;2023-02-15T13:52:26;31.83;;;22.37;;
14040;SDS011;7095;51.388;6.196;2023-02-15T13:58:01;28.17;;;20.57;;
14040;SDS011;7095;51.388;6.196;2023-02-15T14:00:44;29.47;;;20.77;;
14040;SDS011;7095;51.388;6.196;2023-02-15T14:06:28;32.30;;;21.23;;
14040;SDS011;7095;51.388;6.196;2023-02-15T14:09:13;28.83;;;21.27;;
14040;SDS011;7095;51.388;6.196;2023-02-15T14:11:53;32.27;;;22.10;;
14040;SDS011;7095;51.388;6.196;2023-02-15T14:14:49;33.87;;;20.73;;
14040;SDS011;7095;51.388;6.196;2023-02-15T14:17:33;28.40;;;20.83;;
14040;SDS011;7095;51.388;6.196;2023-02-15T14:20:15;32.07;;;20.90;;
14040;SDS011;7095;51.388;6.196;2023-02-15T14:22:49;32.93;;;20.20;;
14040;SDS011;7095;51.388;6.196;2023-02-15T14:25:28;25.73;;;19.93;;
14040;SDS011;7095;51.388;6.196;2023-02-15T14:28:02;31.10;;;21.53;;
14040;SDS011;7095;51.388;6.196;2023-02-15T14:30:38;33.23;;;21.23;;
14040;SDS011;7095;51.388;6.196;2023-02-15T14:33:16;35.37;;;21.03;;
14040;SDS011;7095;51.388;6.196;2023-02-15T14:36:00;27.67;;;20.17;;
14040;SDS011;7095;51.388;6.196;2023-02-15T14:38:36;31.93;;;20.17;;
14040;SDS011;7095;51.388;6.196;2023-02-15T14:41:17;30.53;;;20.37;;
14040;SDS011;7095;51.388;6.196;2023-02-15T14:43:50;30.90;;;20.73;;
14040;SDS011;7095;51.388;6.196;2023-02-15T14:46:30;29.53;;;19.83;;
14040;SDS011;7095;51.388;6.196;2023-02-15T14:49:05;32.17;;;19.93;;
14040;SDS011;7095;51.388;6.196;2023-02-15T14:51:54;28.50;;;19.27;;
14040;SDS011;7095;51.388;6.196;2023-02-15T14:57:38;31.13;;;19.83;;
14040;SDS011;7095;51.388;6.196;2023-02-15T15:02:59;30.83;;;20.83;;
14040;SDS011;7095;51.388;6.196;2023-02-15T15:05:31;31.87;;;21.23;;
14040;SDS011;7095;51.388;6.196;2023-02-15T15:08:02;33.33;;;20.20;;
14040;SDS011;7095;51.388;6.196;2023-02-15T15:10:37;31.47;;;21.03;;
14040;SDS011;7095;51.388;6.196;2023-02-15T15:22:35;38.03;;;20.47;;
14040;SDS011;7095;51.388;6.196;2023-02-15T15:25:07;32.63;;;19.73;;
14040;SDS011;7095;51.388;6.196;2023-02-15T15:36:31;31.27;;;19.43;;
14040;SDS011;7095;51.388;6.196;2023-02-15T15:39:24;32.63;;;19.83;;
14040;SDS011;7095;51.388;6.196;2023-02-15T15:42:12;30.23;;;20.07;;
14040;SDS011;7095;51.388;6.196;2023-02-15T15:47:58;31.73;;;19.60;;
14040;SDS011;7095;51.388;6.196;2023-02-15T15:50:40;32.37;;;20.23;;
14040;SDS011;7095;51.388;6.196;2023-02-15T15:55:46;32.43;;;19.93;;